sensor_id;sensor_type;location;lat;lon;timestamp;temperature;humidity
13686;DHT22;6915;48.296;8.874;2022-12-16T00:00:18;-2.10;99.90
13686;DHT22;6915;48.296;8.874;2022-12-16T00:02:46;-2.00;99.90
13686;DHT22;6915;48.296;8.874;2022-12-16T00:05:15;-2.10;99.90
13686;DHT22;6915;48.296;8.874;2022-12-16T00:07:46;-2.10;99.90
13686;DHT22;6915;48.296;8.874;2022-12-16T00:10:15;-2.20;99.90
13686;DHT22;6915;48.296;8.874;2022-12-16T00:12:44;-2.20;99.90
13686;DHT22;6915;48.296;8.874;2022-12-16T00:15:12;-2.20;99.90
13686;DHT22;6915;48.296;8.874;2022-12-16T00:17:42;-2.20;99.90
13686;DHT22;6915;48.296;8.874;2022-12-16T00:20:10;-2.30;99.90
13686;DHT22;6915;48.296;8.874;2022-12-16T00:22:39;-2.30;99.90
13686;DHT22;6915;48.296;8.874;2022-12-16T00:25:07;-2.30;99.90
13686;DHT22;6915;48.296;8.874;2022-12-16T00:27:36;-2.20;99.90
13686;DHT22;6915;48.296;8.874;2022-12-16T00:30:03;-2.20;99.90
13686;DHT22;6915;48.296;8.874;2022-12-16T00:32:32;-2.30;99.90
13686;DHT22;6915;48.296;8.874;2022-12-16T00:35:03;-2.20;99.90
13686;DHT22;6915;48.296;8.874;2022-12-16T00:37:31;-2.30;99.90
13686;DHT22;6915;48.296;8.874;2022-12-16T00:40:00;-2.30;99.90
13686;DHT22;6915;48.296;8.874;2022-12-16T00:42:29;-2.30;99.90
13686;DHT22;6915;48.296;8.874;2022-12-16T00:44:57;-2.30;99.90
13686;DHT22;6915;48.296;8.874;2022-12-16T00:47:26;-2.30;99.90
13686;DHT22;6915;48.296;8.874;2022-12-16T00:49:54;-2.30;99.90
13686;DHT22;6915;48.296;8.874;2022-12-16T00:52:24;-2.20;99.90
13686;DHT22;6915;48.296;8.874;2022-12-16T00:54:53;-2.30;99.90
13686;DHT22;6915;48.296;8.874;2022-12-16T00:57:22;-2.30;99.90
13686;DHT22;6915;48.296;8.874;2022-12-16T00:59:50;-2.30;99.90
13686;DHT22;6915;48.296;8.874;2022-12-16T01:02:19;-2.30;99.90
13686;DHT22;6915;48.296;8.874;2022-12-16T01:04:48;-2.40;99.90
13686;DHT22;6915;48.296;8.874;2022-12-16T01:07:14;-2.40;99.90
13686;DHT22;6915;48.296;8.874;2022-12-16T01:09:44;-2.40;99.90
13686;DHT22;6915;48.296;8.874;2022-12-16T01:12:13;-2.40;99.90
13686;DHT22;6915;48.296;8.874;2022-12-16T01:14:43;-2.40;99.90
13686;DHT22;6915;48.296;8.874;2022-12-16T01:17:12;-2.40;99.90
13686;DHT22;6915;48.296;8.874;2022-12-16T01:19:41;-2.20;99.90
13686;DHT22;6915;48.296;8.874;2022-12-16T01:22:09;-2.40;99.90
13686;DHT22;6915;48.296;8.874;2022-12-16T01:24:38;-2.50;99.90
13686;DHT22;6915;48.296;8.874;2022-12-16T01:27:08;-2.50;99.90
13686;DHT22;6915;48.296;8.874;2022-12-16T01:29:37;-2.50;99.90
13686;DHT22;6915;48.296;8.874;2022-12-16T01:32:05;-2.60;99.90
13686;DHT22;6915;48.296;8.874;2022-12-16T01:34:33;-2.60;99.90
13686;DHT22;6915;48.296;8.874;2022-12-16T01:37:02;-2.60;99.90
13686;DHT22;6915;48.296;8.874;2022-12-16T01:39:30;-2.70;99.90
13686;DHT22;6915;48.296;8.874;2022-12-16T01:41:59;-2.70;99.90
13686;DHT22;6915;48.296;8.874;2022-12-16T01:44:29;-2.70;99.90
13686;DHT22;6915;48.296;8.874;2022-12-16T01:47:02;-2.80;99.90
13686;DHT22;6915;48.296;8.874;2022-12-16T01:49:39;-2.80;99.90
13686;DHT22;6915;48.296;8.874;2022-12-16T01:52:14;-2.80;99.90
13686;DHT22;6915;48.296;8.874;2022-12-16T01:54:47;-2.80;99.90
13686;DHT22;6915;48.296;8.874;2022-12-16T01:57:22;-2.80;99.90
13686;DHT22;6915;48.296;8.874;2022-12-16T01:59:55;-2.80;99.90
13686;DHT22;6915;48.296;8.874;2022-12-16T02:02:25;-2.90;99.90
13686;DHT22;6915;48.296;8.874;2022-12-16T02:04:55;-2.90;99.90
13686;DHT22;6915;48.296;8.874;2022-12-16T02:07:41;-2.80;99.90
13686;DHT22;6915;48.296;8.874;2022-12-16T02:10:10;-3.00;99.90
13686;DHT22;6915;48.296;8.874;2022-12-16T02:12:43;-3.00;99.90
13686;DHT22;6915;48.296;8.874;2022-12-16T02:15:27;-3.00;99.90
13686;DHT22;6915;48.296;8.874;2022-12-16T02:17:59;-3.00;99.90
13686;DHT22;6915;48.296;8.874;2022-12-16T02:24:06;-3.00;99.90
13686;DHT22;6915;48.296;8.874;2022-12-16T02:26:58;-3.00;99.90
13686;DHT22;6915;48.296;8.874;2022-12-16T02:29:56;-3.10;99.90
13686;DHT22;6915;48.296;8.874;2022-12-16T02:32:37;-3.30;99.90
13686;DHT22;6915;48.296;8.874;2022-12-16T02:35:12;-3.30;99.90
13686;DHT22;6915;48.296;8.874;2022-12-16T02:37:46;-3.20;99.90
13686;DHT22;6915;48.296;8.874;2022-12-16T02:40:26;-3.20;99.90
13686;DHT22;6915;48.296;8.874;2022-12-16T02:43:00;-3.20;99.90
13686;DHT22;6915;48.296;8.874;2022-12-16T02:45:32;-3.20;99.90
13686;DHT22;6915;48.296;8.874;2022-12-16T02:48:03;-3.30;99.90
13686;DHT22;6915;48.296;8.874;2022-12-16T02:50:37;-3.20;99.90
13686;DHT22;6915;48.296;8.874;2022-12-16T02:53:08;-3.30;99.90
13686;DHT22;6915;48.296;8.874;2022-12-16T02:55:53;-3.20;99.90
13686;DHT22;6915;48.296;8.874;2022-12-16T02:58:24;-3.30;99.90
13686;DHT22;6915;48.296;8.874;2022-12-16T03:00:59;-3.20;99.90
13686;DHT22;6915;48.296;8.874;2022-12-16T03:03:39;-3.20;99.90
13686;DHT22;6915;48.296;8.874;2022-12-16T03:06:12;-3.10;99.90
13686;DHT22;6915;48.296;8.874;2022-12-16T03:08:45;-3.20;99.90
13686;DHT22;6915;48.296;8.874;2022-12-16T03:11:15;-3.20;99.90
13686;DHT22;6915;48.296;8.874;2022-12-16T03:13:46;-3.20;99.90
13686;DHT22;6915;48.296;8.874;2022-12-16T03:16:20;-3.20;99.90
13686;DHT22;6915;48.296;8.874;2022-12-16T03:18:54;-3.20;99.90
13686;DHT22;6915;48.296;8.874;2022-12-16T03:21:26;-3.20;99.90
13686;DHT22;6915;48.296;8.874;2022-12-16T03:23:59;-3.20;99.90
13686;DHT22;6915;48.296;8.874;2022-12-16T03:26:32;-3.20;99.90
13686;DHT22;6915;48.296;8.874;2022-12-16T03:29:05;-3.10;99.90
13686;DHT22;6915;48.296;8.874;2022-12-16T03:31:39;-3.10;99.90
13686;DHT22;6915;48.296;8.874;2022-12-16T03:34:15;-3.00;99.90
13686;DHT22;6915;48.296;8.874;2022-12-16T03:36:49;-3.20;99.90
13686;DHT22;6915;48.296;8.874;2022-12-16T03:39:20;-3.20;99.90
13686;DHT22;6915;48.296;8.874;2022-12-16T03:41:51;-3.30;99.90
13686;DHT22;6915;48.296;8.874;2022-12-16T03:44:23;-3.30;99.90
13686;DHT22;6915;48.296;8.874;2022-12-16T03:46:53;-3.30;99.90
13686;DHT22;6915;48.296;8.874;2022-12-16T03:49:24;-3.30;99.90
13686;DHT22;6915;48.296;8.874;2022-12-16T03:51:53;-3.30;99.90
13686;DHT22;6915;48.296;8.874;2022-12-16T03:54:22;-3.40;99.90
13686;DHT22;6915;48.296;8.874;2022-12-16T03:56:52;-3.50;99.90
13686;DHT22;6915;48.296;8.874;2022-12-16T03:59:22;-3.50;99.90
13686;DHT22;6915;48.296;8.874;2022-12-16T04:01:53;-3.50;99.90
13686;DHT22;6915;48.296;8.874;2022-12-16T04:04:30;-3.50;99.90
13686;DHT22;6915;48.296;8.874;2022-12-16T04:07:07;-3.40;99.90
13686;DHT22;6915;48.296;8.874;2022-12-16T04:09:51;-3.40;99.90
13686;DHT22;6915;48.296;8.874;2022-12-16T04:12:20;-3.40;99.90
13686;DHT22;6915;48.296;8.874;2022-12-16T04:15:21;-3.40;99.90
13686;DHT22;6915;48.296;8.874;2022-12-16T04:18:15;-3.30;99.90
13686;DHT22;6915;48.296;8.874;2022-12-16T04:21:04;-3.30;99.90
13686;DHT22;6915;48.296;8.874;2022-12-16T04:23:53;-3.30;99.90
13686;DHT22;6915;48.296;8.874;2022-12-16T04:26:42;-3.30;99.90
13686;DHT22;6915;48.296;8.874;2022-12-16T04:29:25;-3.40;99.90
13686;DHT22;6915;48.296;8.874;2022-12-16T04:31:54;-3.40;99.90
13686;DHT22;6915;48.296;8.874;2022-12-16T04:34:23;-3.40;99.90
13686;DHT22;6915;48.296;8.874;2022-12-16T04:36:56;-3.40;99.90
13686;DHT22;6915;48.296;8.874;2022-12-16T04:39:42;-3.40;99.90
13686;DHT22;6915;48.296;8.874;2022-12-16T04:42:30;-3.40;99.90
13686;DHT22;6915;48.296;8.874;2022-12-16T04:45:13;-3.20;99.90
13686;DHT22;6915;48.296;8.874;2022-12-16T04:48:01;-3.30;99.90
13686;DHT22;6915;48.296;8.874;2022-12-16T04:50:47;-3.30;99.90
13686;DHT22;6915;48.296;8.874;2022-12-16T04:53:34;-3.40;99.90
13686;DHT22;6915;48.296;8.874;2022-12-16T04:56:20;-3.40;99.90
13686;DHT22;6915;48.296;8.874;2022-12-16T04:59:07;-3.40;99.90
13686;DHT22;6915;48.296;8.874;2022-12-16T05:01:53;-3.40;99.90
13686;DHT22;6915;48.296;8.874;2022-12-16T05:04:39;-3.30;99.90
13686;DHT22;6915;48.296;8.874;2022-12-16T05:07:25;-3.40;99.90
13686;DHT22;6915;48.296;8.874;2022-12-16T05:10:13;-3.40;99.90
13686;DHT22;6915;48.296;8.874;2022-12-16T05:12:59;-3.40;99.90
13686;DHT22;6915;48.296;8.874;2022-12-16T05:15:45;-3.40;99.90
13686;DHT22;6915;48.296;8.874;2022-12-16T05:18:31;-3.50;99.90
13686;DHT22;6915;48.296;8.874;2022-12-16T05:21:17;-3.40;99.90
13686;DHT22;6915;48.296;8.874;2022-12-16T05:24:04;-3.50;99.90
13686;DHT22;6915;48.296;8.874;2022-12-16T05:26:52;-3.40;99.90
13686;DHT22;6915;48.296;8.874;2022-12-16T05:29:38;-3.40;99.90
13686;DHT22;6915;48.296;8.874;2022-12-16T05:32:25;-3.40;99.90
13686;DHT22;6915;48.296;8.874;2022-12-16T05:35:11;-3.40;99.90
13686;DHT22;6915;48.296;8.874;2022-12-16T05:37:57;-3.30;99.90
13686;DHT22;6915;48.296;8.874;2022-12-16T05:40:43;-3.50;99.90
13686;DHT22;6915;48.296;8.874;2022-12-16T05:43:31;-3.50;99.90
13686;DHT22;6915;48.296;8.874;2022-12-16T05:46:17;-3.50;99.90
13686;DHT22;6915;48.296;8.874;2022-12-16T05:49:03;-3.50;99.90
13686;DHT22;6915;48.296;8.874;2022-12-16T05:51:49;-3.50;99.90
13686;DHT22;6915;48.296;8.874;2022-12-16T05:54:36;-3.50;99.90
13686;DHT22;6915;48.296;8.874;2022-12-16T05:57:22;-3.50;99.90
13686;DHT22;6915;48.296;8.874;2022-12-16T06:00:12;-3.60;99.90
13686;DHT22;6915;48.296;8.874;2022-12-16T06:02:58;-3.50;99.90
13686;DHT22;6915;48.296;8.874;2022-12-16T06:05:50;-3.50;99.90
13686;DHT22;6915;48.296;8.874;2022-12-16T06:08:36;-3.50;99.90
13686;DHT22;6915;48.296;8.874;2022-12-16T06:11:23;-3.50;99.90
13686;DHT22;6915;48.296;8.874;2022-12-16T06:14:09;-3.50;99.90
13686;DHT22;6915;48.296;8.874;2022-12-16T06:16:56;-3.50;99.90
13686;DHT22;6915;48.296;8.874;2022-12-16T06:19:43;-3.50;99.90
13686;DHT22;6915;48.296;8.874;2022-12-16T06:22:44;-3.50;99.90
13686;DHT22;6915;48.296;8.874;2022-12-16T06:25:35;-3.50;99.90
13686;DHT22;6915;48.296;8.874;2022-12-16T06:28:21;-3.50;99.90
13686;DHT22;6915;48.296;8.874;2022-12-16T06:31:07;-3.50;99.90
13686;DHT22;6915;48.296;8.874;2022-12-16T06:33:55;-3.40;99.90
13686;DHT22;6915;48.296;8.874;2022-12-16T06:36:42;-3.50;99.90
13686;DHT22;6915;48.296;8.874;2022-12-16T06:39:28;-3.50;99.90
13686;DHT22;6915;48.296;8.874;2022-12-16T06:42:14;-3.50;99.90
13686;DHT22;6915;48.296;8.874;2022-12-16T06:45:01;-3.50;99.90
13686;DHT22;6915;48.296;8.874;2022-12-16T06:47:47;-3.50;99.90
13686;DHT22;6915;48.296;8.874;2022-12-16T06:50:35;-3.30;99.90
13686;DHT22;6915;48.296;8.874;2022-12-16T06:53:21;-3.40;99.90
13686;DHT22;6915;48.296;8.874;2022-12-16T06:56:08;-3.50;99.90
13686;DHT22;6915;48.296;8.874;2022-12-16T06:58:54;-3.30;99.90
13686;DHT22;6915;48.296;8.874;2022-12-16T07:01:40;-3.40;99.90
13686;DHT22;6915;48.296;8.874;2022-12-16T07:04:28;-3.40;99.90
13686;DHT22;6915;48.296;8.874;2022-12-16T07:07:16;-3.40;99.90
13686;DHT22;6915;48.296;8.874;2022-12-16T07:10:01;-3.30;99.90
13686;DHT22;6915;48.296;8.874;2022-12-16T07:12:48;-3.40;99.90
13686;DHT22;6915;48.296;8.874;2022-12-16T07:15:34;-3.30;99.90
13686;DHT22;6915;48.296;8.874;2022-12-16T07:18:20;-3.40;99.90
13686;DHT22;6915;48.296;8.874;2022-12-16T07:21:07;-3.40;99.90
13686;DHT22;6915;48.296;8.874;2022-12-16T07:23:56;-3.30;99.90
13686;DHT22;6915;48.296;8.874;2022-12-16T07:26:42;-3.40;99.90
13686;DHT22;6915;48.296;8.874;2022-12-16T07:29:29;-3.40;99.90
13686;DHT22;6915;48.296;8.874;2022-12-16T07:32:17;-3.30;99.90
13686;DHT22;6915;48.296;8.874;2022-12-16T07:35:04;-3.40;99.90
13686;DHT22;6915;48.296;8.874;2022-12-16T07:37:50;-3.40;99.90
13686;DHT22;6915;48.296;8.874;2022-12-16T07:40:38;-3.30;99.90
13686;DHT22;6915;48.296;8.874;2022-12-16T07:43:26;-3.30;99.90
13686;DHT22;6915;48.296;8.874;2022-12-16T07:46:13;-3.30;99.90
13686;DHT22;6915;48.296;8.874;2022-12-16T07:49:00;-3.30;99.90
13686;DHT22;6915;48.296;8.874;2022-12-16T07:51:46;-3.30;99.90
13686;DHT22;6915;48.296;8.874;2022-12-16T07:54:33;-3.30;99.90
13686;DHT22;6915;48.296;8.874;2022-12-16T07:57:21;-3.30;99.90
13686;DHT22;6915;48.296;8.874;2022-12-16T08:00:09;-3.20;99.90
13686;DHT22;6915;48.296;8.874;2022-12-16T08:02:56;-3.20;99.90
13686;DHT22;6915;48.296;8.874;2022-12-16T08:05:44;-3.20;99.90
13686;DHT22;6915;48.296;8.874;2022-12-16T08:08:31;-3.00;99.90
13686;DHT22;6915;48.296;8.874;2022-12-16T08:11:17;-3.20;99.90
13686;DHT22;6915;48.296;8.874;2022-12-16T08:14:05;-3.20;99.90
13686;DHT22;6915;48.296;8.874;2022-12-16T08:16:51;-3.20;99.90
13686;DHT22;6915;48.296;8.874;2022-12-16T08:19:37;-3.20;99.90
13686;DHT22;6915;48.296;8.874;2022-12-16T08:22:24;-3.20;99.90
13686;DHT22;6915;48.296;8.874;2022-12-16T08:25:10;-3.20;99.90
13686;DHT22;6915;48.296;8.874;2022-12-16T08:27:57;-3.20;99.90
13686;DHT22;6915;48.296;8.874;2022-12-16T08:30:45;-3.20;99.90
13686;DHT22;6915;48.296;8.874;2022-12-16T08:33:45;-3.40;99.90
13686;DHT22;6915;48.296;8.874;2022-12-16T08:36:32;-3.40;99.90
13686;DHT22;6915;48.296;8.874;2022-12-16T08:39:18;-3.40;99.90
13686;DHT22;6915;48.296;8.874;2022-12-16T08:42:05;-3.40;99.90
13686;DHT22;6915;48.296;8.874;2022-12-16T08:44:51;-3.40;99.90
13686;DHT22;6915;48.296;8.874;2022-12-16T08:47:39;-3.40;99.90
13686;DHT22;6915;48.296;8.874;2022-12-16T08:50:25;-3.40;99.90
13686;DHT22;6915;48.296;8.874;2022-12-16T08:53:11;-3.40;99.90
13686;DHT22;6915;48.296;8.874;2022-12-16T08:55:57;-3.30;99.90
13686;DHT22;6915;48.296;8.874;2022-12-16T08:58:43;-3.20;99.90
13686;DHT22;6915;48.296;8.874;2022-12-16T09:01:30;-3.10;99.90
13686;DHT22;6915;48.296;8.874;2022-12-16T09:04:17;-3.20;99.90
13686;DHT22;6915;48.296;8.874;2022-12-16T09:07:04;-3.10;99.90
13686;DHT22;6915;48.296;8.874;2022-12-16T09:09:50;-3.00;99.90
13686;DHT22;6915;48.296;8.874;2022-12-16T09:12:36;-2.80;99.90
13686;DHT22;6915;48.296;8.874;2022-12-16T09:15:22;-2.50;99.90
13686;DHT22;6915;48.296;8.874;2022-12-16T09:18:09;-2.80;99.90
13686;DHT22;6915;48.296;8.874;2022-12-16T09:20:56;-2.60;99.90
13686;DHT22;6915;48.296;8.874;2022-12-16T09:23:42;-2.30;99.90
13686;DHT22;6915;48.296;8.874;2022-12-16T09:26:29;-2.40;99.90
13686;DHT22;6915;48.296;8.874;2022-12-16T09:29:15;-2.30;99.90
13686;DHT22;6915;48.296;8.874;2022-12-16T09:32:03;-2.30;99.90
13686;DHT22;6915;48.296;8.874;2022-12-16T09:34:50;-2.20;99.90
13686;DHT22;6915;48.296;8.874;2022-12-16T09:37:37;-1.90;99.90
13686;DHT22;6915;48.296;8.874;2022-12-16T09:40:23;-2.10;99.90
13686;DHT22;6915;48.296;8.874;2022-12-16T09:43:24;-2.10;99.90
13686;DHT22;6915;48.296;8.874;2022-12-16T09:46:21;-2.10;99.90
13686;DHT22;6915;48.296;8.874;2022-12-16T09:49:19;-2.10;99.90
13686;DHT22;6915;48.296;8.874;2022-12-16T09:52:17;-2.00;99.90
13686;DHT22;6915;48.296;8.874;2022-12-16T09:55:09;-2.00;99.90
13686;DHT22;6915;48.296;8.874;2022-12-16T09:57:59;-2.00;99.90
13686;DHT22;6915;48.296;8.874;2022-12-16T10:00:46;-2.00;99.90
13686;DHT22;6915;48.296;8.874;2022-12-16T10:03:35;-1.90;99.90
13686;DHT22;6915;48.296;8.874;2022-12-16T10:06:31;-1.90;99.90
13686;DHT22;6915;48.296;8.874;2022-12-16T10:09:23;-1.70;99.90
13686;DHT22;6915;48.296;8.874;2022-12-16T10:12:16;-1.50;99.90
13686;DHT22;6915;48.296;8.874;2022-12-16T10:15:08;-1.30;99.90
13686;DHT22;6915;48.296;8.874;2022-12-16T10:18:00;-1.40;99.90
13686;DHT22;6915;48.296;8.874;2022-12-16T10:20:50;-1.30;99.90
13686;DHT22;6915;48.296;8.874;2022-12-16T10:23:41;-1.20;99.90
13686;DHT22;6915;48.296;8.874;2022-12-16T10:26:34;-1.00;99.90
13686;DHT22;6915;48.296;8.874;2022-12-16T10:29:27;-1.00;99.90
13686;DHT22;6915;48.296;8.874;2022-12-16T10:32:17;-0.70;99.90
13686;DHT22;6915;48.296;8.874;2022-12-16T10:35:16;-0.50;99.90
13686;DHT22;6915;48.296;8.874;2022-12-16T10:38:06;-0.20;99.90
13686;DHT22;6915;48.296;8.874;2022-12-16T10:40:58;-0.10;99.90
13686;DHT22;6915;48.296;8.874;2022-12-16T10:43:46;0.00;99.90
13686;DHT22;6915;48.296;8.874;2022-12-16T10:46:36;-0.20;99.90
13686;DHT22;6915;48.296;8.874;2022-12-16T10:49:22;-0.70;99.90
13686;DHT22;6915;48.296;8.874;2022-12-16T10:52:12;-0.50;99.90
13686;DHT22;6915;48.296;8.874;2022-12-16T10:55:11;-0.40;99.90
13686;DHT22;6915;48.296;8.874;2022-12-16T11:24:04;-0.30;99.90
13686;DHT22;6915;48.296;8.874;2022-12-16T11:26:56;-0.30;99.90
13686;DHT22;6915;48.296;8.874;2022-12-16T11:29:54;-0.20;99.90
13686;DHT22;6915;48.296;8.874;2022-12-16T11:32:42;-0.10;99.90
13686;DHT22;6915;48.296;8.874;2022-12-16T11:35:31;0.00;99.90
13686;DHT22;6915;48.296;8.874;2022-12-16T11:38:22;-0.10;99.90
13686;DHT22;6915;48.296;8.874;2022-12-16T11:41:20;0.00;99.90
13686;DHT22;6915;48.296;8.874;2022-12-16T11:44:12;0.20;99.90
13686;DHT22;6915;48.296;8.874;2022-12-16T11:47:01;0.20;99.90
13686;DHT22;6915;48.296;8.874;2022-12-16T11:49:47;0.30;99.90
13686;DHT22;6915;48.296;8.874;2022-12-16T11:52:34;0.50;99.90
13686;DHT22;6915;48.296;8.874;2022-12-16T11:55:22;0.50;99.90
13686;DHT22;6915;48.296;8.874;2022-12-16T11:58:16;0.50;99.90
13686;DHT22;6915;48.296;8.874;2022-12-16T12:01:09;0.50;99.90
13686;DHT22;6915;48.296;8.874;2022-12-16T12:03:57;0.40;99.90
13686;DHT22;6915;48.296;8.874;2022-12-16T12:07:02;0.40;99.90
13686;DHT22;6915;48.296;8.874;2022-12-16T12:09:53;0.40;99.90
13686;DHT22;6915;48.296;8.874;2022-12-16T12:12:46;0.30;99.90
13686;DHT22;6915;48.296;8.874;2022-12-16T12:15:39;0.20;99.90
13686;DHT22;6915;48.296;8.874;2022-12-16T12:18:37;-0.10;99.90
13686;DHT22;6915;48.296;8.874;2022-12-16T12:21:29;-0.10;99.90
13686;DHT22;6915;48.296;8.874;2022-12-16T12:24:23;-0.30;99.90
13686;DHT22;6915;48.296;8.874;2022-12-16T12:27:17;-0.30;99.90
13686;DHT22;6915;48.296;8.874;2022-12-16T12:30:09;-0.30;99.90
13686;DHT22;6915;48.296;8.874;2022-12-16T12:33:17;-0.20;99.90
13686;DHT22;6915;48.296;8.874;2022-12-16T12:36:11;-0.20;99.90
13686;DHT22;6915;48.296;8.874;2022-12-16T12:39:08;0.00;99.90
13686;DHT22;6915;48.296;8.874;2022-12-16T12:42:07;-0.30;99.90
13686;DHT22;6915;48.296;8.874;2022-12-16T12:45:02;-0.50;99.90
13686;DHT22;6915;48.296;8.874;2022-12-16T12:47:57;-0.50;99.90
13686;DHT22;6915;48.296;8.874;2022-12-16T12:50:51;-0.40;99.90
13686;DHT22;6915;48.296;8.874;2022-12-16T12:53:45;-0.30;99.90
13686;DHT22;6915;48.296;8.874;2022-12-16T12:56:39;-0.40;99.90
13686;DHT22;6915;48.296;8.874;2022-12-16T12:59:30;-0.50;99.90
13686;DHT22;6915;48.296;8.874;2022-12-16T13:02:22;-0.50;99.90
13686;DHT22;6915;48.296;8.874;2022-12-16T13:05:13;-0.60;99.90
13686;DHT22;6915;48.296;8.874;2022-12-16T13:08:39;-0.80;99.90
13686;DHT22;6915;48.296;8.874;2022-12-16T13:11:26;-0.70;99.90
13686;DHT22;6915;48.296;8.874;2022-12-16T13:21:00;-0.70;99.90
13686;DHT22;6915;48.296;8.874;2022-12-16T13:24:19;-0.90;99.90
13686;DHT22;6915;48.296;8.874;2022-12-16T13:27:12;-0.80;99.90
13686;DHT22;6915;48.296;8.874;2022-12-16T13:30:16;-0.80;99.90
13686;DHT22;6915;48.296;8.874;2022-12-16T13:33:06;-0.70;99.90
13686;DHT22;6915;48.296;8.874;2022-12-16T13:36:06;-0.50;99.90
13686;DHT22;6915;48.296;8.874;2022-12-16T13:38:54;-0.70;99.90
13686;DHT22;6915;48.296;8.874;2022-12-16T13:41:50;-0.80;99.90
13686;DHT22;6915;48.296;8.874;2022-12-16T13:44:57;-1.00;99.90
13686;DHT22;6915;48.296;8.874;2022-12-16T13:48:02;-1.10;99.90
13686;DHT22;6915;48.296;8.874;2022-12-16T13:50:51;-1.20;99.90
13686;DHT22;6915;48.296;8.874;2022-12-16T13:53:40;-1.10;99.90
13686;DHT22;6915;48.296;8.874;2022-12-16T13:56:30;-1.10;99.90
13686;DHT22;6915;48.296;8.874;2022-12-16T13:59:22;-1.10;99.90
13686;DHT22;6915;48.296;8.874;2022-12-16T14:02:22;-1.20;99.90
13686;DHT22;6915;48.296;8.874;2022-12-16T14:05:16;-1.30;99.90
13686;DHT22;6915;48.296;8.874;2022-12-16T14:08:02;-1.30;99.90
13686;DHT22;6915;48.296;8.874;2022-12-16T14:11:00;-1.60;99.90
13686;DHT22;6915;48.296;8.874;2022-12-16T14:13:52;-1.70;99.90
13686;DHT22;6915;48.296;8.874;2022-12-16T14:16:49;-1.80;99.90
13686;DHT22;6915;48.296;8.874;2022-12-16T14:19:45;-1.80;99.90
13686;DHT22;6915;48.296;8.874;2022-12-16T14:22:44;-1.80;99.90
13686;DHT22;6915;48.296;8.874;2022-12-16T14:25:32;-1.80;99.90
13686;DHT22;6915;48.296;8.874;2022-12-16T14:28:26;-1.80;99.90
13686;DHT22;6915;48.296;8.874;2022-12-16T14:31:14;-1.80;99.90
13686;DHT22;6915;48.296;8.874;2022-12-16T14:34:04;-1.90;99.90
13686;DHT22;6915;48.296;8.874;2022-12-16T14:36:55;-2.10;99.90
13686;DHT22;6915;48.296;8.874;2022-12-16T14:39:42;-2.10;99.90
13686;DHT22;6915;48.296;8.874;2022-12-16T14:42:29;-2.10;99.90
13686;DHT22;6915;48.296;8.874;2022-12-16T14:45:27;-2.30;99.90
13686;DHT22;6915;48.296;8.874;2022-12-16T14:48:27;-2.20;99.90
13686;DHT22;6915;48.296;8.874;2022-12-16T14:51:32;-2.30;99.90
13686;DHT22;6915;48.296;8.874;2022-12-16T14:54:20;-2.30;99.90
13686;DHT22;6915;48.296;8.874;2022-12-16T14:57:12;-2.30;99.90
13686;DHT22;6915;48.296;8.874;2022-12-16T15:00:03;-2.30;99.90
13686;DHT22;6915;48.296;8.874;2022-12-16T15:03:14;-2.40;99.90
13686;DHT22;6915;48.296;8.874;2022-12-16T15:06:09;-2.20;99.90
13686;DHT22;6915;48.296;8.874;2022-12-16T15:09:00;-2.40;99.90
13686;DHT22;6915;48.296;8.874;2022-12-16T15:11:49;-2.50;99.90
13686;DHT22;6915;48.296;8.874;2022-12-16T15:14:39;-2.50;99.90
13686;DHT22;6915;48.296;8.874;2022-12-16T15:17:32;-2.50;99.90
13686;DHT22;6915;48.296;8.874;2022-12-16T15:20:23;-2.50;99.90
13686;DHT22;6915;48.296;8.874;2022-12-16T15:23:18;-2.50;99.90
13686;DHT22;6915;48.296;8.874;2022-12-16T15:26:08;-2.60;99.90
13686;DHT22;6915;48.296;8.874;2022-12-16T15:29:03;-2.50;99.90
13686;DHT22;6915;48.296;8.874;2022-12-16T15:31:50;-2.60;99.90
13686;DHT22;6915;48.296;8.874;2022-12-16T15:34:44;-2.70;99.90
13686;DHT22;6915;48.296;8.874;2022-12-16T15:37:34;-2.60;99.90
13686;DHT22;6915;48.296;8.874;2022-12-16T15:40:24;-2.70;99.90
13686;DHT22;6915;48.296;8.874;2022-12-16T15:43:31;-2.70;99.90
13686;DHT22;6915;48.296;8.874;2022-12-16T15:46:18;-2.70;99.90
13686;DHT22;6915;48.296;8.874;2022-12-16T15:49:05;-2.60;99.90
13686;DHT22;6915;48.296;8.874;2022-12-16T15:51:59;-2.80;99.90
13686;DHT22;6915;48.296;8.874;2022-12-16T15:54:53;-2.80;99.90
13686;DHT22;6915;48.296;8.874;2022-12-16T15:57:53;-2.80;99.90
13686;DHT22;6915;48.296;8.874;2022-12-16T16:00:42;-2.90;99.90
13686;DHT22;6915;48.296;8.874;2022-12-16T16:03:56;-2.80;99.90
13686;DHT22;6915;48.296;8.874;2022-12-16T16:06:50;-2.90;99.90
13686;DHT22;6915;48.296;8.874;2022-12-16T16:09:38;-3.00;99.90
13686;DHT22;6915;48.296;8.874;2022-12-16T16:12:27;-3.00;99.90
13686;DHT22;6915;48.296;8.874;2022-12-16T16:15:14;-3.00;99.90
13686;DHT22;6915;48.296;8.874;2022-12-16T16:18:04;-2.90;99.90
13686;DHT22;6915;48.296;8.874;2022-12-16T16:20:48;-3.10;99.90
13686;DHT22;6915;48.296;8.874;2022-12-16T16:23:35;-2.90;99.90
13686;DHT22;6915;48.296;8.874;2022-12-16T16:26:24;-3.20;99.90
13686;DHT22;6915;48.296;8.874;2022-12-16T16:29:12;-3.10;99.90
13686;DHT22;6915;48.296;8.874;2022-12-16T16:31:58;-3.10;99.90
13686;DHT22;6915;48.296;8.874;2022-12-16T16:34:47;-3.10;99.90
13686;DHT22;6915;48.296;8.874;2022-12-16T16:37:39;-3.10;99.90
13686;DHT22;6915;48.296;8.874;2022-12-16T16:40:30;-3.20;99.90
13686;DHT22;6915;48.296;8.874;2022-12-16T16:43:16;-3.20;99.90
13686;DHT22;6915;48.296;8.874;2022-12-16T16:46:04;-3.20;99.90
13686;DHT22;6915;48.296;8.874;2022-12-16T16:48:52;-3.20;99.90
13686;DHT22;6915;48.296;8.874;2022-12-16T17:38:41;-3.20;99.90
13686;DHT22;6915;48.296;8.874;2022-12-16T17:41:28;-3.10;99.90
13686;DHT22;6915;48.296;8.874;2022-12-16T17:44:15;-3.20;99.90
13686;DHT22;6915;48.296;8.874;2022-12-16T17:47:02;-3.30;99.90
13686;DHT22;6915;48.296;8.874;2022-12-16T17:49:48;-3.30;99.90
13686;DHT22;6915;48.296;8.874;2022-12-16T17:52:35;-3.40;99.90
13686;DHT22;6915;48.296;8.874;2022-12-16T17:55:22;-3.40;99.90
13686;DHT22;6915;48.296;8.874;2022-12-16T17:58:11;-3.40;99.90
13686;DHT22;6915;48.296;8.874;2022-12-16T18:00:59;-3.50;99.90
13686;DHT22;6915;48.296;8.874;2022-12-16T18:11:32;-3.60;99.90
13686;DHT22;6915;48.296;8.874;2022-12-16T18:14:18;-3.50;99.90
13686;DHT22;6915;48.296;8.874;2022-12-16T18:17:05;-3.60;99.90
13686;DHT22;6915;48.296;8.874;2022-12-16T18:19:51;-3.60;99.90
13686;DHT22;6915;48.296;8.874;2022-12-16T18:22:38;-3.60;99.90
13686;DHT22;6915;48.296;8.874;2022-12-16T18:25:24;-3.60;99.90
13686;DHT22;6915;48.296;8.874;2022-12-16T18:28:12;-3.60;99.90
13686;DHT22;6915;48.296;8.874;2022-12-16T18:31:02;-3.60;99.90
13686;DHT22;6915;48.296;8.874;2022-12-16T18:33:48;-3.60;99.90
13686;DHT22;6915;48.296;8.874;2022-12-16T18:36:34;-3.40;99.90
13686;DHT22;6915;48.296;8.874;2022-12-16T18:39:21;-3.50;99.90
13686;DHT22;6915;48.296;8.874;2022-12-16T18:42:07;-3.50;99.90
13686;DHT22;6915;48.296;8.874;2022-12-16T18:44:55;-3.60;99.90
13686;DHT22;6915;48.296;8.874;2022-12-16T18:47:42;-3.60;99.90
13686;DHT22;6915;48.296;8.874;2022-12-16T18:50:28;-3.30;99.90
13686;DHT22;6915;48.296;8.874;2022-12-16T18:53:15;-3.50;99.90
13686;DHT22;6915;48.296;8.874;2022-12-16T18:56:03;-3.60;99.90
13686;DHT22;6915;48.296;8.874;2022-12-16T18:58:49;-3.60;99.90
13686;DHT22;6915;48.296;8.874;2022-12-16T19:01:37;-3.60;99.90
13686;DHT22;6915;48.296;8.874;2022-12-16T19:04:24;-3.70;99.90
13686;DHT22;6915;48.296;8.874;2022-12-16T19:07:10;-3.70;99.90
13686;DHT22;6915;48.296;8.874;2022-12-16T19:09:59;-3.80;99.90
13686;DHT22;6915;48.296;8.874;2022-12-16T19:12:45;-3.80;99.90